Карточка аэропорта UIBB

Внимание!
Информация на этой странице в стадии наполнения.
Если вы не увидели какой-то информации, или заметили неточность - пожалуйста сообщите нам!
Спасибо!
Команда RU-STAFF
Название аэропортаБратск
Название аэропорта (англ.)Bratsk
Превышение1598 ft. (487.1 m.)
Координаты56°22.236', 101°41.94'
Высота перехода900m
Эшелон переходаQFE>=715mm:FL060; QFE<715=>688:FL070; QFE<688:FL080
Коды ответчика3301-3327
Зона ОрВДИркутск РПИ (UIII)
Данные METARUIBB 272030Z AUTO 08004MPS 9999 // ///054/// 00/M02 Q1007 RMK QFE713/0950
Проноз погоды (TAF)UIBB 272000Z 2721/2821 07003MPS 9999 FEW001 BKN016CB TEMPO 2721/2724 0300 FZFG VV001 FM280000 13005MPS 2900 -SHRASN BKN003 BKN016CB TEMPO 2800/2809 0700 +SHSNRA VV001 BECMG 2805/2807 24005G10MPS BECMG 2809/2811 9999 -SHSN BKN016CB
NOTAMshow/hide NOTAM
AWOS   TABLE

Информация о ВПП


Диспетчерские позиции

Позывной Наименование органа УВД Частота
UIBB_APPБратск-Подход118.1
UIBB_GNDБратск-Вышка121.8



Спутниковое изображение